sensor_id;sensor_type;location;lat;lon;timestamp;P1;durP1;ratioP1;P2;durP2;ratioP2
58470;SDS011;44258;51.288;12.068;2022-11-02T00:00:37;4.60;;;1.90;;
58470;SDS011;44258;51.288;12.068;2022-11-02T00:03:10;5.82;;;1.98;;
58470;SDS011;44258;51.288;12.068;2022-11-02T00:05:37;10.88;;;2.17;;
58470;SDS011;44258;51.288;12.068;2022-11-02T00:08:04;4.95;;;1.85;;
58470;SDS011;44258;51.288;12.068;2022-11-02T00:10:31;6.10;;;2.80;;
58470;SDS011;44258;51.288;12.068;2022-11-02T00:13:01;5.70;;;1.88;;
58470;SDS011;44258;51.288;12.068;2022-11-02T00:15:29;5.22;;;2.25;;
58470;SDS011;44258;51.288;12.068;2022-11-02T00:18:00;7.43;;;1.98;;
58470;SDS011;44258;51.288;12.068;2022-11-02T00:20:30;5.88;;;2.10;;
58470;SDS011;44258;51.288;12.068;2022-11-02T00:22:59;6.28;;;2.15;;
58470;SDS011;44258;51.288;12.068;2022-11-02T00:25:27;7.32;;;2.20;;
58470;SDS011;44258;51.288;12.068;2022-11-02T00:27:55;7.13;;;2.00;;
58470;SDS011;44258;51.288;12.068;2022-11-02T00:30:22;7.63;;;1.98;;
58470;SDS011;44258;51.288;12.068;2022-11-02T00:32:49;7.65;;;2.20;;
58470;SDS011;44258;51.288;12.068;2022-11-02T00:35:19;5.95;;;1.90;;
58470;SDS011;44258;51.288;12.068;2022-11-02T00:37:46;5.72;;;1.90;;
58470;SDS011;44258;51.288;12.068;2022-11-02T00:40:12;6.13;;;2.17;;
58470;SDS011;44258;51.288;12.068;2022-11-02T00:42:39;7.32;;;2.20;;
58470;SDS011;44258;51.288;12.068;2022-11-02T00:45:10;7.97;;;2.10;;
58470;SDS011;44258;51.288;12.068;2022-11-02T00:47:37;5.97;;;1.80;;
58470;SDS011;44258;51.288;12.068;2022-11-02T00:50:04;5.15;;;1.95;;
58470;SDS011;44258;51.288;12.068;2022-11-02T00:52:32;4.00;;;1.90;;
58470;SDS011;44258;51.288;12.068;2022-11-02T00:54:59;3.72;;;1.65;;
58470;SDS011;44258;51.288;12.068;2022-11-02T00:57:25;5.20;;;1.92;;
58470;SDS011;44258;51.288;12.068;2022-11-02T00:59:52;5.13;;;1.85;;
58470;SDS011;44258;51.288;12.068;2022-11-02T01:02:19;6.03;;;1.98;;
58470;SDS011;44258;51.288;12.068;2022-11-02T01:04:46;5.13;;;2.00;;
58470;SDS011;44258;51.288;12.068;2022-11-02T01:07:12;5.28;;;2.08;;
58470;SDS011;44258;51.288;12.068;2022-11-02T01:09:41;4.85;;;1.73;;
58470;SDS011;44258;51.288;12.068;2022-11-02T01:12:07;7.05;;;2.05;;
58470;SDS011;44258;51.288;12.068;2022-11-02T01:14:34;4.35;;;1.88;;
58470;SDS011;44258;51.288;12.068;2022-11-02T01:17:01;6.45;;;1.80;;
58470;SDS011;44258;51.288;12.068;2022-11-02T01:19:29;5.05;;;1.80;;
58470;SDS011;44258;51.288;12.068;2022-11-02T01:21:55;5.32;;;2.33;;
58470;SDS011;44258;51.288;12.068;2022-11-02T01:24:22;6.60;;;2.00;;
58470;SDS011;44258;51.288;12.068;2022-11-02T01:26:51;4.82;;;1.80;;
58470;SDS011;44258;51.288;12.068;2022-11-02T01:29:24;7.18;;;2.00;;
58470;SDS011;44258;51.288;12.068;2022-11-02T01:31:50;5.35;;;1.85;;
58470;SDS011;44258;51.288;12.068;2022-11-02T01:34:19;5.93;;;1.98;;
58470;SDS011;44258;51.288;12.068;2022-11-02T01:36:45;7.57;;;2.20;;
58470;SDS011;44258;51.288;12.068;2022-11-02T01:39:16;5.53;;;1.92;;
58470;SDS011;44258;51.288;12.068;2022-11-02T01:41:42;6.45;;;2.15;;
58470;SDS011;44258;51.288;12.068;2022-11-02T01:44:26;5.20;;;1.85;;
58470;SDS011;44258;51.288;12.068;2022-11-02T01:46:55;7.03;;;2.00;;
58470;SDS011;44258;51.288;12.068;2022-11-02T01:49:25;5.05;;;1.80;;
58470;SDS011;44258;51.288;12.068;2022-11-02T01:51:55;6.68;;;1.90;;
58470;SDS011;44258;51.288;12.068;2022-11-02T01:54:25;6.00;;;1.77;;
58470;SDS011;44258;51.288;12.068;2022-11-02T01:56:57;5.88;;;1.73;;
58470;SDS011;44258;51.288;12.068;2022-11-02T01:59:29;5.57;;;2.10;;
58470;SDS011;44258;51.288;12.068;2022-11-02T02:02:02;3.42;;;1.60;;
58470;SDS011;44258;51.288;12.068;2022-11-02T02:04:33;7.60;;;2.10;;
58470;SDS011;44258;51.288;12.068;2022-11-02T02:07:00;4.18;;;1.60;;
58470;SDS011;44258;51.288;12.068;2022-11-02T02:09:29;6.97;;;1.83;;
58470;SDS011;44258;51.288;12.068;2022-11-02T02:11:57;6.75;;;2.00;;
58470;SDS011;44258;51.288;12.068;2022-11-02T02:14:23;4.15;;;1.77;;
58470;SDS011;44258;51.288;12.068;2022-11-02T02:17:01;5.90;;;1.52;;
58470;SDS011;44258;51.288;12.068;2022-11-02T02:19:39;5.13;;;1.73;;
58470;SDS011;44258;51.288;12.068;2022-11-02T02:25:45;4.20;;;1.65;;
58470;SDS011;44258;51.288;12.068;2022-11-02T02:28:26;7.22;;;2.20;;
58470;SDS011;44258;51.288;12.068;2022-11-02T02:31:03;5.32;;;1.65;;
58470;SDS011;44258;51.288;12.068;2022-11-02T02:33:40;6.10;;;1.92;;
58470;SDS011;44258;51.288;12.068;2022-11-02T02:36:14;7.47;;;1.95;;
58470;SDS011;44258;51.288;12.068;2022-11-02T02:38:46;8.38;;;2.13;;
58470;SDS011;44258;51.288;12.068;2022-11-02T02:41:16;4.25;;;1.85;;
58470;SDS011;44258;51.288;12.068;2022-11-02T02:43:52;5.85;;;1.80;;
58470;SDS011;44258;51.288;12.068;2022-11-02T02:46:21;10.48;;;2.40;;
58470;SDS011;44258;51.288;12.068;2022-11-02T02:48:56;4.40;;;1.80;;
58470;SDS011;44258;51.288;12.068;2022-11-02T02:51:25;5.90;;;1.75;;
58470;SDS011;44258;51.288;12.068;2022-11-02T02:53:56;4.47;;;1.90;;
58470;SDS011;44258;51.288;12.068;2022-11-02T02:56:26;5.03;;;1.90;;
58470;SDS011;44258;51.288;12.068;2022-11-02T02:59:00;6.88;;;1.80;;
58470;SDS011;44258;51.288;12.068;2022-11-02T03:01:31;6.57;;;1.77;;
58470;SDS011;44258;51.288;12.068;2022-11-02T03:04:00;5.43;;;1.65;;
58470;SDS011;44258;51.288;12.068;2022-11-02T03:06:29;5.13;;;1.98;;
58470;SDS011;44258;51.288;12.068;2022-11-02T03:09:02;12.07;;;2.30;;
58470;SDS011;44258;51.288;12.068;2022-11-02T03:11:35;7.82;;;1.85;;
58470;SDS011;44258;51.288;12.068;2022-11-02T03:14:15;5.13;;;1.70;;
58470;SDS011;44258;51.288;12.068;2022-11-02T03:16:57;8.75;;;1.90;;
58470;SDS011;44258;51.288;12.068;2022-11-02T03:19:35;7.25;;;1.90;;
58470;SDS011;44258;51.288;12.068;2022-11-02T03:22:11;5.75;;;1.80;;
58470;SDS011;44258;51.288;12.068;2022-11-02T03:24:46;10.02;;;2.30;;
58470;SDS011;44258;51.288;12.068;2022-11-02T03:27:21;5.22;;;1.40;;
58470;SDS011;44258;51.288;12.068;2022-11-02T03:29:58;7.13;;;1.70;;
58470;SDS011;44258;51.288;12.068;2022-11-02T03:32:34;7.55;;;1.50;;
58470;SDS011;44258;51.288;12.068;2022-11-02T03:35:05;7.78;;;2.28;;
58470;SDS011;44258;51.288;12.068;2022-11-02T03:37:44;7.50;;;1.60;;
58470;SDS011;44258;51.288;12.068;2022-11-02T03:40:17;7.50;;;1.67;;
58470;SDS011;44258;51.288;12.068;2022-11-02T03:42:48;7.35;;;1.73;;
58470;SDS011;44258;51.288;12.068;2022-11-02T03:45:20;7.90;;;1.90;;
58470;SDS011;44258;51.288;12.068;2022-11-02T03:47:49;5.45;;;1.60;;
58470;SDS011;44258;51.288;12.068;2022-11-02T03:50:20;5.15;;;1.48;;
58470;SDS011;44258;51.288;12.068;2022-11-02T03:52:49;4.82;;;1.80;;
58470;SDS011;44258;51.288;12.068;2022-11-02T03:55:23;4.65;;;1.67;;
58470;SDS011;44258;51.288;12.068;2022-11-02T03:57:53;5.03;;;1.73;;
58470;SDS011;44258;51.288;12.068;2022-11-02T04:00:22;4.80;;;1.65;;
58470;SDS011;44258;51.288;12.068;2022-11-02T04:02:51;7.47;;;1.50;;
58470;SDS011;44258;51.288;12.068;2022-11-02T04:05:25;5.70;;;1.73;;
58470;SDS011;44258;51.288;12.068;2022-11-02T04:07:53;8.82;;;1.83;;
58470;SDS011;44258;51.288;12.068;2022-11-02T04:10:40;8.20;;;2.10;;
58470;SDS011;44258;51.288;12.068;2022-11-02T04:13:26;8.60;;;2.03;;
58470;SDS011;44258;51.288;12.068;2022-11-02T04:16:12;5.20;;;1.45;;
58470;SDS011;44258;51.288;12.068;2022-11-02T04:18:39;6.95;;;1.60;;
58470;SDS011;44258;51.288;12.068;2022-11-02T04:21:23;6.07;;;1.58;;
58470;SDS011;44258;51.288;12.068;2022-11-02T04:23:50;5.97;;;1.80;;
58470;SDS011;44258;51.288;12.068;2022-11-02T04:26:35;3.72;;;1.65;;
58470;SDS011;44258;51.288;12.068;2022-11-02T04:29:02;10.65;;;2.17;;
58470;SDS011;44258;51.288;12.068;2022-11-02T04:31:30;6.32;;;1.70;;
58470;SDS011;44258;51.288;12.068;2022-11-02T04:33:57;4.05;;;1.50;;
58470;SDS011;44258;51.288;12.068;2022-11-02T04:36:24;4.45;;;1.38;;
58470;SDS011;44258;51.288;12.068;2022-11-02T04:38:51;3.47;;;1.40;;
58470;SDS011;44258;51.288;12.068;2022-11-02T04:44:01;6.10;;;1.70;;
58470;SDS011;44258;51.288;12.068;2022-11-02T04:46:32;5.18;;;1.45;;
58470;SDS011;44258;51.288;12.068;2022-11-02T04:49:00;6.07;;;1.70;;
58470;SDS011;44258;51.288;12.068;2022-11-02T04:51:28;6.88;;;1.95;;
58470;SDS011;44258;51.288;12.068;2022-11-02T04:53:57;6.38;;;1.42;;
58470;SDS011;44258;51.288;12.068;2022-11-02T04:56:24;4.38;;;1.77;;
58470;SDS011;44258;51.288;12.068;2022-11-02T04:58:52;6.30;;;1.83;;
58470;SDS011;44258;51.288;12.068;2022-11-02T05:01:20;4.82;;;1.42;;
58470;SDS011;44258;51.288;12.068;2022-11-02T05:03:51;4.88;;;1.80;;
58470;SDS011;44258;51.288;12.068;2022-11-02T05:06:19;4.85;;;1.55;;
58470;SDS011;44258;51.288;12.068;2022-11-02T05:08:47;3.75;;;1.45;;
58470;SDS011;44258;51.288;12.068;2022-11-02T05:11:13;8.23;;;1.73;;
58470;SDS011;44258;51.288;12.068;2022-11-02T05:13:40;8.20;;;1.80;;
58470;SDS011;44258;51.288;12.068;2022-11-02T05:16:09;4.82;;;1.60;;
58470;SDS011;44258;51.288;12.068;2022-11-02T05:18:40;6.35;;;2.08;;
58470;SDS011;44258;51.288;12.068;2022-11-02T05:21:09;4.45;;;1.38;;
58470;SDS011;44258;51.288;12.068;2022-11-02T05:23:36;9.75;;;1.83;;
58470;SDS011;44258;51.288;12.068;2022-11-02T05:26:04;9.93;;;2.28;;
58470;SDS011;44258;51.288;12.068;2022-11-02T05:28:31;7.35;;;1.75;;
58470;SDS011;44258;51.288;12.068;2022-11-02T05:30:59;6.60;;;1.52;;
58470;SDS011;44258;51.288;12.068;2022-11-02T05:33:30;9.85;;;1.80;;
58470;SDS011;44258;51.288;12.068;2022-11-02T05:35:57;9.43;;;1.85;;
58470;SDS011;44258;51.288;12.068;2022-11-02T05:38:26;3.50;;;1.42;;
58470;SDS011;44258;51.288;12.068;2022-11-02T05:40:54;6.80;;;1.85;;
58470;SDS011;44258;51.288;12.068;2022-11-02T05:43:22;7.32;;;1.50;;
58470;SDS011;44258;51.288;12.068;2022-11-02T05:45:54;4.65;;;1.67;;
58470;SDS011;44258;51.288;12.068;2022-11-02T05:48:21;9.70;;;1.33;;
58470;SDS011;44258;51.288;12.068;2022-11-02T05:50:48;6.72;;;1.33;;
58470;SDS011;44258;51.288;12.068;2022-11-02T05:53:19;8.85;;;1.85;;
58470;SDS011;44258;51.288;12.068;2022-11-02T05:55:47;6.45;;;1.80;;
58470;SDS011;44258;51.288;12.068;2022-11-02T05:58:14;6.13;;;1.67;;
58470;SDS011;44258;51.288;12.068;2022-11-02T06:00:41;4.05;;;1.45;;
58470;SDS011;44258;51.288;12.068;2022-11-02T06:03:07;9.30;;;1.80;;
58470;SDS011;44258;51.288;12.068;2022-11-02T06:05:34;6.80;;;1.63;;
58470;SDS011;44258;51.288;12.068;2022-11-02T06:08:01;5.47;;;1.45;;
58470;SDS011;44258;51.288;12.068;2022-11-02T06:10:28;4.18;;;1.70;;
58470;SDS011;44258;51.288;12.068;2022-11-02T06:12:57;4.95;;;1.52;;
58470;SDS011;44258;51.288;12.068;2022-11-02T06:15:25;8.27;;;1.63;;
58470;SDS011;44258;51.288;12.068;2022-11-02T06:17:52;5.30;;;1.48;;
58470;SDS011;44258;51.288;12.068;2022-11-02T06:20:19;4.03;;;1.50;;
58470;SDS011;44258;51.288;12.068;2022-11-02T06:22:46;5.25;;;1.35;;
58470;SDS011;44258;51.288;12.068;2022-11-02T06:25:13;5.57;;;1.30;;
58470;SDS011;44258;51.288;12.068;2022-11-02T06:27:40;7.68;;;1.50;;
58470;SDS011;44258;51.288;12.068;2022-11-02T06:30:09;7.53;;;1.67;;
58470;SDS011;44258;51.288;12.068;2022-11-02T06:32:36;4.72;;;1.70;;
58470;SDS011;44258;51.288;12.068;2022-11-02T06:35:03;3.67;;;1.40;;
58470;SDS011;44258;51.288;12.068;2022-11-02T06:37:31;7.63;;;1.95;;
58470;SDS011;44258;51.288;12.068;2022-11-02T06:39:58;7.57;;;1.95;;
58470;SDS011;44258;51.288;12.068;2022-11-02T06:42:25;5.57;;;1.75;;
58470;SDS011;44258;51.288;12.068;2022-11-02T06:44:55;7.93;;;1.88;;
58470;SDS011;44258;51.288;12.068;2022-11-02T06:47:30;4.18;;;1.40;;
58470;SDS011;44258;51.288;12.068;2022-11-02T06:49:57;7.03;;;1.80;;
58470;SDS011;44258;51.288;12.068;2022-11-02T06:52:23;6.57;;;1.45;;
58470;SDS011;44258;51.288;12.068;2022-11-02T06:54:50;5.95;;;1.70;;
58470;SDS011;44258;51.288;12.068;2022-11-02T06:57:17;5.38;;;1.52;;
58470;SDS011;44258;51.288;12.068;2022-11-02T06:59:43;5.57;;;1.88;;
58470;SDS011;44258;51.288;12.068;2022-11-02T07:02:10;6.35;;;1.48;;
58470;SDS011;44258;51.288;12.068;2022-11-02T07:04:38;6.10;;;1.45;;
58470;SDS011;44258;51.288;12.068;2022-11-02T07:07:05;6.82;;;1.75;;
58470;SDS011;44258;51.288;12.068;2022-11-02T07:09:32;5.03;;;1.70;;
58470;SDS011;44258;51.288;12.068;2022-11-02T07:11:58;5.20;;;1.35;;
58470;SDS011;44258;51.288;12.068;2022-11-02T07:14:25;6.22;;;1.58;;
58470;SDS011;44258;51.288;12.068;2022-11-02T07:16:52;7.40;;;1.70;;
58470;SDS011;44258;51.288;12.068;2022-11-02T07:19:18;5.65;;;1.60;;
58470;SDS011;44258;51.288;12.068;2022-11-02T07:21:46;5.82;;;1.58;;
58470;SDS011;44258;51.288;12.068;2022-11-02T07:24:13;3.70;;;1.60;;
58470;SDS011;44258;51.288;12.068;2022-11-02T07:26:39;4.75;;;1.60;;
58470;SDS011;44258;51.288;12.068;2022-11-02T07:29:06;5.72;;;1.60;;
58470;SDS011;44258;51.288;12.068;2022-11-02T07:31:32;4.22;;;1.67;;
58470;SDS011;44258;51.288;12.068;2022-11-02T07:33:59;5.05;;;1.88;;
58470;SDS011;44258;51.288;12.068;2022-11-02T07:36:26;3.78;;;1.60;;
58470;SDS011;44258;51.288;12.068;2022-11-02T07:38:54;5.95;;;1.85;;
58470;SDS011;44258;51.288;12.068;2022-11-02T07:41:20;7.75;;;2.08;;
58470;SDS011;44258;51.288;12.068;2022-11-02T07:43:50;7.45;;;1.77;;
58470;SDS011;44258;51.288;12.068;2022-11-02T07:46:17;7.03;;;1.60;;
58470;SDS011;44258;51.288;12.068;2022-11-02T07:48:43;2.50;;;1.52;;
58470;SDS011;44258;51.288;12.068;2022-11-02T07:51:11;6.25;;;1.55;;
58470;SDS011;44258;51.288;12.068;2022-11-02T07:53:38;5.57;;;1.88;;
58470;SDS011;44258;51.288;12.068;2022-11-02T07:56:06;9.15;;;1.90;;
58470;SDS011;44258;51.288;12.068;2022-11-02T07:58:33;5.90;;;1.63;;
58470;SDS011;44258;51.288;12.068;2022-11-02T08:01:00;5.55;;;1.85;;
58470;SDS011;44258;51.288;12.068;2022-11-02T08:03:27;6.60;;;1.58;;
58470;SDS011;44258;51.288;12.068;2022-11-02T08:05:54;5.90;;;1.70;;
58470;SDS011;44258;51.288;12.068;2022-11-02T08:08:22;5.75;;;1.85;;
58470;SDS011;44258;51.288;12.068;2022-11-02T08:10:50;7.53;;;1.80;;
58470;SDS011;44258;51.288;12.068;2022-11-02T08:13:21;8.38;;;1.88;;
58470;SDS011;44258;51.288;12.068;2022-11-02T08:15:50;5.75;;;1.80;;
58470;SDS011;44258;51.288;12.068;2022-11-02T08:18:18;7.25;;;2.03;;
58470;SDS011;44258;51.288;12.068;2022-11-02T08:20:46;4.60;;;1.63;;
58470;SDS011;44258;51.288;12.068;2022-11-02T08:23:14;5.03;;;1.80;;
58470;SDS011;44258;51.288;12.068;2022-11-02T08:25:42;6.28;;;1.48;;
58470;SDS011;44258;51.288;12.068;2022-11-02T08:28:11;7.28;;;1.80;;
58470;SDS011;44258;51.288;12.068;2022-11-02T08:30:41;6.60;;;1.55;;
58470;SDS011;44258;51.288;12.068;2022-11-02T08:33:08;7.78;;;1.95;;
58470;SDS011;44258;51.288;12.068;2022-11-02T08:35:39;5.90;;;1.77;;
58470;SDS011;44258;51.288;12.068;2022-11-02T08:38:07;6.60;;;1.63;;
58470;SDS011;44258;51.288;12.068;2022-11-02T08:40:34;6.45;;;2.00;;
58470;SDS011;44258;51.288;12.068;2022-11-02T08:43:02;8.13;;;1.98;;
58470;SDS011;44258;51.288;12.068;2022-11-02T08:45:31;8.93;;;1.90;;
58470;SDS011;44258;51.288;12.068;2022-11-02T08:48:00;8.18;;;1.70;;
58470;SDS011;44258;51.288;12.068;2022-11-02T08:50:27;7.68;;;1.83;;
58470;SDS011;44258;51.288;12.068;2022-11-02T08:52:54;9.13;;;1.58;;
58470;SDS011;44258;51.288;12.068;2022-11-02T08:55:20;4.53;;;1.30;;
58470;SDS011;44258;51.288;12.068;2022-11-02T08:57:47;7.35;;;1.50;;
58470;SDS011;44258;51.288;12.068;2022-11-02T09:00:16;6.65;;;1.33;;
58470;SDS011;44258;51.288;12.068;2022-11-02T09:02:43;6.22;;;1.42;;
58470;SDS011;44258;51.288;12.068;2022-11-02T09:05:23;9.93;;;1.88;;
58470;SDS011;44258;51.288;12.068;2022-11-02T09:07:53;3.58;;;1.30;;
58470;SDS011;44258;51.288;12.068;2022-11-02T09:10:20;9.63;;;1.75;;
58470;SDS011;44258;51.288;12.068;2022-11-02T09:12:46;5.32;;;1.55;;
58470;SDS011;44258;51.288;12.068;2022-11-02T09:15:13;6.70;;;2.10;;
58470;SDS011;44258;51.288;12.068;2022-11-02T09:17:40;5.38;;;1.48;;
58470;SDS011;44258;51.288;12.068;2022-11-02T09:20:06;5.72;;;1.60;;
58470;SDS011;44258;51.288;12.068;2022-11-02T09:22:35;8.00;;;1.30;;
58470;SDS011;44258;51.288;12.068;2022-11-02T09:25:01;5.30;;;1.90;;
58470;SDS011;44258;51.288;12.068;2022-11-02T09:27:28;4.65;;;1.60;;
58470;SDS011;44258;51.288;12.068;2022-11-02T09:29:55;8.55;;;1.45;;
58470;SDS011;44258;51.288;12.068;2022-11-02T09:32:21;4.97;;;1.40;;
58470;SDS011;44258;51.288;12.068;2022-11-02T09:34:48;4.63;;;1.38;;
58470;SDS011;44258;51.288;12.068;2022-11-02T09:37:16;4.50;;;1.58;;
58470;SDS011;44258;51.288;12.068;2022-11-02T09:39:44;4.82;;;1.38;;
58470;SDS011;44258;51.288;12.068;2022-11-02T09:42:11;5.30;;;1.52;;
58470;SDS011;44258;51.288;12.068;2022-11-02T09:44:46;3.63;;;1.13;;
58470;SDS011;44258;51.288;12.068;2022-11-02T09:47:19;6.15;;;1.40;;
58470;SDS011;44258;51.288;12.068;2022-11-02T09:49:48;7.50;;;1.60;;
58470;SDS011;44258;51.288;12.068;2022-11-02T09:52:18;6.15;;;1.58;;
58470;SDS011;44258;51.288;12.068;2022-11-02T09:54:51;4.80;;;1.25;;
58470;SDS011;44258;51.288;12.068;2022-11-02T09:57:24;3.95;;;1.38;;
58470;SDS011;44258;51.288;12.068;2022-11-02T09:59:53;9.85;;;1.30;;
58470;SDS011;44258;51.288;12.068;2022-11-02T10:02:22;4.53;;;1.20;;
58470;SDS011;44258;51.288;12.068;2022-11-02T10:05:03;6.72;;;1.20;;
58470;SDS011;44258;51.288;12.068;2022-11-02T10:07:51;7.70;;;1.42;;
58470;SDS011;44258;51.288;12.068;2022-11-02T10:10:32;5.60;;;1.20;;
58470;SDS011;44258;51.288;12.068;2022-11-02T10:13:05;9.90;;;1.60;;
58470;SDS011;44258;51.288;12.068;2022-11-02T10:15:46;4.65;;;1.38;;
58470;SDS011;44258;51.288;12.068;2022-11-02T10:18:22;4.38;;;0.98;;
58470;SDS011;44258;51.288;12.068;2022-11-02T10:20:51;3.88;;;1.27;;
58470;SDS011;44258;51.288;12.068;2022-11-02T10:23:24;5.93;;;1.48;;
58470;SDS011;44258;51.288;12.068;2022-11-02T10:25:56;3.53;;;1.00;;
58470;SDS011;44258;51.288;12.068;2022-11-02T10:28:25;5.40;;;1.77;;
58470;SDS011;44258;51.288;12.068;2022-11-02T10:30:55;4.05;;;1.15;;
58470;SDS011;44258;51.288;12.068;2022-11-02T10:33:24;7.95;;;1.33;;
58470;SDS011;44258;51.288;12.068;2022-11-02T10:36:06;2.92;;;0.98;;
58470;SDS011;44258;51.288;12.068;2022-11-02T10:38:43;5.93;;;0.82;;
58470;SDS011;44258;51.288;12.068;2022-11-02T10:41:26;5.05;;;1.42;;
58470;SDS011;44258;51.288;12.068;2022-11-02T10:44:19;4.03;;;0.75;;
58470;SDS011;44258;51.288;12.068;2022-11-02T10:46:57;4.35;;;0.82;;
58470;SDS011;44258;51.288;12.068;2022-11-02T10:49:43;4.70;;;1.23;;
58470;SDS011;44258;51.288;12.068;2022-11-02T10:52:23;4.90;;;1.13;;
58470;SDS011;44258;51.288;12.068;2022-11-02T10:54:56;5.50;;;1.20;;
58470;SDS011;44258;51.288;12.068;2022-11-02T10:57:25;4.68;;;1.48;;
58470;SDS011;44258;51.288;12.068;2022-11-02T11:03:00;4.00;;;1.30;;
58470;SDS011;44258;51.288;12.068;2022-11-02T11:05:29;3.53;;;1.38;;
58470;SDS011;44258;51.288;12.068;2022-11-02T11:07:57;4.57;;;1.48;;
58470;SDS011;44258;51.288;12.068;2022-11-02T11:10:24;5.82;;;1.10;;
58470;SDS011;44258;51.288;12.068;2022-11-02T11:12:53;3.88;;;1.08;;
58470;SDS011;44258;51.288;12.068;2022-11-02T11:15:21;5.10;;;1.00;;
58470;SDS011;44258;51.288;12.068;2022-11-02T11:17:49;5.20;;;1.02;;
58470;SDS011;44258;51.288;12.068;2022-11-02T11:20:30;3.40;;;1.20;;
58470;SDS011;44258;51.288;12.068;2022-11-02T11:23:10;5.30;;;1.25;;
58470;SDS011;44258;51.288;12.068;2022-11-02T11:25:52;2.45;;;0.88;;
58470;SDS011;44258;51.288;12.068;2022-11-02T11:28:25;5.88;;;1.65;;
58470;SDS011;44258;51.288;12.068;2022-11-02T11:31:00;2.95;;;1.02;;
58470;SDS011;44258;51.288;12.068;2022-11-02T11:33:30;3.90;;;0.82;;
58470;SDS011;44258;51.288;12.068;2022-11-02T11:35:58;3.95;;;1.13;;
58470;SDS011;44258;51.288;12.068;2022-11-02T11:38:25;5.40;;;0.88;;
58470;SDS011;44258;51.288;12.068;2022-11-02T11:40:53;2.97;;;0.82;;
58470;SDS011;44258;51.288;12.068;2022-11-02T11:43:25;5.30;;;1.42;;
58470;SDS011;44258;51.288;12.068;2022-11-02T11:45:54;3.75;;;0.80;;
58470;SDS011;44258;51.288;12.068;2022-11-02T11:48:25;2.78;;;1.10;;
58470;SDS011;44258;51.288;12.068;2022-11-02T11:50:59;3.55;;;0.90;;
58470;SDS011;44258;51.288;12.068;2022-11-02T11:53:28;6.30;;;1.15;;
58470;SDS011;44258;51.288;12.068;2022-11-02T11:55:56;4.30;;;1.00;;
58470;SDS011;44258;51.288;12.068;2022-11-02T11:58:25;2.55;;;0.70;;
58470;SDS011;44258;51.288;12.068;2022-11-02T12:01:03;3.80;;;1.00;;
58470;SDS011;44258;51.288;12.068;2022-11-02T12:03:31;3.95;;;0.90;;
58470;SDS011;44258;51.288;12.068;2022-11-02T12:06:00;4.50;;;0.93;;
58470;SDS011;44258;51.288;12.068;2022-11-02T12:08:41;4.68;;;0.98;;
58470;SDS011;44258;51.288;12.068;2022-11-02T12:11:22;2.72;;;0.60;;
58470;SDS011;44258;51.288;12.068;2022-11-02T12:14:03;5.95;;;1.20;;
58470;SDS011;44258;51.288;12.068;2022-11-02T12:16:47;4.80;;;1.08;;
58470;SDS011;44258;51.288;12.068;2022-11-02T12:19:34;7.25;;;1.10;;
58470;SDS011;44258;51.288;12.068;2022-11-02T12:22:12;3.40;;;0.98;;
58470;SDS011;44258;51.288;12.068;2022-11-02T12:24:54;5.97;;;1.27;;
58470;SDS011;44258;51.288;12.068;2022-11-02T12:27:36;5.68;;;0.75;;
58470;SDS011;44258;51.288;12.068;2022-11-02T12:30:16;3.80;;;0.93;;
58470;SDS011;44258;51.288;12.068;2022-11-02T12:33:03;3.53;;;1.00;;
58470;SDS011;44258;51.288;12.068;2022-11-02T12:38:34;3.38;;;0.80;;
58470;SDS011;44258;51.288;12.068;2022-11-02T12:41:16;4.13;;;1.30;;
58470;SDS011;44258;51.288;12.068;2022-11-02T12:43:54;4.18;;;0.70;;
58470;SDS011;44258;51.288;12.068;2022-11-02T12:46:35;4.05;;;1.10;;
58470;SDS011;44258;51.288;12.068;2022-11-02T12:49:14;6.22;;;1.40;;
58470;SDS011;44258;51.288;12.068;2022-11-02T12:51:53;3.30;;;1.02;;
58470;SDS011;44258;51.288;12.068;2022-11-02T12:54:29;3.17;;;0.90;;
58470;SDS011;44258;51.288;12.068;2022-11-02T12:57:04;4.47;;;0.98;;
58470;SDS011;44258;51.288;12.068;2022-11-02T12:59:37;5.28;;;0.73;;
58470;SDS011;44258;51.288;12.068;2022-11-02T13:02:10;3.90;;;0.90;;
58470;SDS011;44258;51.288;12.068;2022-11-02T13:04:43;3.35;;;0.70;;
58470;SDS011;44258;51.288;12.068;2022-11-02T13:07:15;2.63;;;0.77;;
58470;SDS011;44258;51.288;12.068;2022-11-02T13:09:49;4.65;;;0.90;;
58470;SDS011;44258;51.288;12.068;2022-11-02T13:12:21;3.92;;;0.82;;
58470;SDS011;44258;51.288;12.068;2022-11-02T13:14:50;5.32;;;0.73;;
58470;SDS011;44258;51.288;12.068;2022-11-02T13:17:21;7.07;;;1.15;;
58470;SDS011;44258;51.288;12.068;2022-11-02T13:19:50;5.30;;;0.82;;
58470;SDS011;44258;51.288;12.068;2022-11-02T13:22:21;2.85;;;0.98;;
58470;SDS011;44258;51.288;12.068;2022-11-02T13:24:54;4.95;;;1.02;;
58470;SDS011;44258;51.288;12.068;2022-11-02T13:27:29;1.63;;;0.77;;
58470;SDS011;44258;51.288;12.068;2022-11-02T13:29:58;3.60;;;0.80;;
58470;SDS011;44258;51.288;12.068;2022-11-02T13:32:31;2.47;;;0.77;;
58470;SDS011;44258;51.288;12.068;2022-11-02T13:35:03;1.75;;;0.50;;
58470;SDS011;44258;51.288;12.068;2022-11-02T13:37:38;2.47;;;0.75;;
58470;SDS011;44258;51.288;12.068;2022-11-02T13:40:11;0.90;;;0.65;;
58470;SDS011;44258;51.288;12.068;2022-11-02T13:42:50;2.85;;;0.70;;
58470;SDS011;44258;51.288;12.068;2022-11-02T13:45:45;1.90;;;1.10;;
58470;SDS011;44258;51.288;12.068;2022-11-02T13:48:27;1.95;;;0.68;;
58470;SDS011;44258;51.288;12.068;2022-11-02T13:51:04;3.67;;;0.98;;
58470;SDS011;44258;51.288;12.068;2022-11-02T13:53:36;3.63;;;0.75;;
58470;SDS011;44258;51.288;12.068;2022-11-02T13:56:07;2.35;;;0.75;;
58470;SDS011;44258;51.288;12.068;2022-11-02T13:58:35;4.55;;;0.90;;
58470;SDS011;44258;51.288;12.068;2022-11-02T14:01:07;4.55;;;0.98;;
58470;SDS011;44258;51.288;12.068;2022-11-02T14:03:44;2.03;;;0.68;;
58470;SDS011;44258;51.288;12.068;2022-11-02T14:06:14;3.08;;;0.88;;
58470;SDS011;44258;51.288;12.068;2022-11-02T14:08:46;2.47;;;0.63;;
58470;SDS011;44258;51.288;12.068;2022-11-02T14:11:25;2.38;;;0.75;;
58470;SDS011;44258;51.288;12.068;2022-11-02T14:14:18;4.53;;;0.88;;
58470;SDS011;44258;51.288;12.068;2022-11-02T14:19:49;2.75;;;0.98;;
58470;SDS011;44258;51.288;12.068;2022-11-02T14:22:21;3.47;;;0.90;;
58470;SDS011;44258;51.288;12.068;2022-11-02T14:24:54;3.13;;;0.93;;
58470;SDS011;44258;51.288;12.068;2022-11-02T14:27:36;3.08;;;0.70;;
58470;SDS011;44258;51.288;12.068;2022-11-02T14:30:02;3.95;;;1.00;;
58470;SDS011;44258;51.288;12.068;2022-11-02T14:32:33;4.47;;;0.85;;
58470;SDS011;44258;51.288;12.068;2022-11-02T14:35:15;3.95;;;0.93;;
58470;SDS011;44258;51.288;12.068;2022-11-02T14:37:56;6.38;;;1.35;;
58470;SDS011;44258;51.288;12.068;2022-11-02T14:40:34;4.53;;;0.90;;
58470;SDS011;44258;51.288;12.068;2022-11-02T14:43:15;3.92;;;0.80;;
58470;SDS011;44258;51.288;12.068;2022-11-02T14:46:04;1.52;;;0.77;;
58470;SDS011;44258;51.288;12.068;2022-11-02T14:51:15;2.55;;;0.82;;
58470;SDS011;44258;51.288;12.068;2022-11-02T14:53:44;2.15;;;0.70;;
58470;SDS011;44258;51.288;12.068;2022-11-02T14:56:12;4.15;;;1.00;;
58470;SDS011;44258;51.288;12.068;2022-11-02T14:58:39;3.38;;;0.90;;
58470;SDS011;44258;51.288;12.068;2022-11-02T15:01:16;3.53;;;1.02;;
58470;SDS011;44258;51.288;12.068;2022-11-02T15:03:43;2.40;;;1.00;;
58470;SDS011;44258;51.288;12.068;2022-11-02T15:06:15;3.50;;;0.90;;
58470;SDS011;44258;51.288;12.068;2022-11-02T15:08:49;6.18;;;1.10;;
58470;SDS011;44258;51.288;12.068;2022-11-02T15:20:22;5.57;;;1.08;;
58470;SDS011;44258;51.288;12.068;2022-11-02T15:22:54;3.95;;;1.00;;